HECALGIR

Guest
Details From HECA - Cairo Intl
To LGIR - Iraklion - Nizos Kazantzakis
Flight Number -
Tags generated
Created
Modified
Stats Distance 447 nm / 827 km
Max Altitude 34,000 ft / 10,363 m
Waypoints 7
Social Downloads 9
Likes 0
Share

Download

Looking for another format? Having issues loading an existing format? Contact us
Advertisement - Login to hide

Notes

Basic altitude profile: - Ascent Rate: 2500ft/min - Ascent Speed: 250kts - Cruise Altitude: 35000ft - Cruise Speed: 420kts - Descent Rate: 1500ft/min - Descent Speed: 250kts Options: - Use NATs: yes - Use PACOTS: yes - Use low airways: yes - Use high airways: yes

Route

HECA AXD UL617 TANSA L613 AMAXI LGIR

ID Type Via Altitude (ft/m) Position (lat/lon) Dist (leg/tot) Name
O HECA APT - 0 / 0 30.12181 / 31.40610 - / 0 nm Cairo Intl
AXD VOR - 34,000 / 10,363 31.18694 / 29.95036 98 / 98 nm ALEXANDRIA VOR-DME
IMRUT FIX UL617 (AWY-HI) 34,000 / 10,363 31.54972 / 29.56278 29 / 128 nm
ASNIR FIX UL617 (AWY-HI) 34,000 / 10,363 32.64694 / 28.36222 89 / 218 nm
TANSA FIX UL617 (AWY-HI) 24,500 / 7,468 34.00000 / 26.81667 112 / 330 nm
AMAXI FIX L613 (AWY-LO) 9,500 / 2,896 35.09778 / 25.78278 83 / 413 nm
O LGIR APT - 0 / 0 35.33949 / 25.18012 32 / 446 nm Iraklion - Nizos Kazantzakis

Altitude Profile

Advertisement - Login to hide

Weather


0- 5 10 15 20 25 30 35+ Temperature / °C

Clouds and Precipitation
Forecast for 2020-06-02 00:00 UTC. Updated 5 hours ago

Ground ~20,000 ft ~40,000 ft Winds

HECA

Details ICAO HECA (CAI)
Name Cairo Intl
Region Egypt
Timezone Africa/Cairo (UTC+2.0)
Stats Elevation 466 ft / 142 m (AMSL)
Location 30.111400° 31.413900°
Runways 3
Magnetic Variation 4.614° E

METAR

HECA 020200Z 28008KT CAVOK 22/14 Q1008

Decode

TAF

TAF HECA 012300Z 0200/0306 31014KT CAVOK= TAF HEAX 012300Z 0200/0306 31010KT 9999 FEW020

Decode

Departure Runways

ID Width Length Bearing (true/mag) Surface Threshold Overrun Markings Lighting
05C 197 ft / 60 m 13,132 ft / 4,003 m 49.04° / 44.42° ASPHALT 0 ft / 0 m 217 ft / 66 m PREC-APP CENTERLINE EDGE THRESHOLD ALSF-II TDZ REIL-OMNI
05L 197 ft / 60 m 10,840 ft / 3,304 m 49.29° / 44.68° ASPHALT 0 ft / 0 m 184 ft / 56 m PREC-APP CENTERLINE EDGE THRESHOLD ALSF-I REIL-OMNI
05R 197 ft / 60 m 13,135 ft / 4,004 m 49.04° / 44.42° ASPHALT 0 ft / 0 m 217 ft / 66 m PREC-APP CENTERLINE EDGE THRESHOLD ALSF-II TDZ REIL-OMNI
23C 197 ft / 60 m 13,132 ft / 4,003 m 229.05° / 224.44° ASPHALT 0 ft / 0 m 226 ft / 69 m PREC-APP CENTERLINE EDGE THRESHOLD ALSF-II TDZ REIL-OMNI
23L 197 ft / 60 m 13,135 ft / 4,004 m 229.05° / 224.44° ASPHALT 0 ft / 0 m 226 ft / 69 m PREC-APP CENTERLINE EDGE THRESHOLD ALSF-II TDZ REIL-OMNI
23R 197 ft / 60 m 10,840 ft / 3,304 m 229.30° / 224.69° ASPHALT 0 ft / 0 m 184 ft / 56 m PREC-APP CENTERLINE EDGE THRESHOLD ALSF-I REIL-OMNI

LGIR

Details ICAO LGIR (HER)
Name Iraklion - Nikos Kazantzakis
Region Greece
Timezone Europe/Athens (UTC+3.0)
Stats Elevation 115 ft / 35 m (AMSL)
Location 35.339900° 25.178200°
Runways 2
Magnetic Variation 4.613° E

METAR

LGIR 020150Z 19004KT 9999 SCT020TCU 18/13 Q1009 NOSIG

Decode

TAF

TAF LGIR 012300Z 0200/0224 VRB05KT 9999 SCT020 SCT080 BECMG 0200/0204 31010KT PROB40 TEMPO 0200/0212 5000 RA FEW018TCU BKN020

Decode

Destination Runways

ID Width Length Bearing (true/mag) Surface Threshold Overrun Markings Lighting
09 148 ft / 45 m 8,918 ft / 2,718 m 94.87° / 90.26° ASPHALT 1,575 ft / 480 m 0 ft / 0 m PREC-APP CENTERLINE EDGE THRESHOLD REIL-UNI
12 164 ft / 50 m 5,132 ft / 1,564 m 126.44° / 121.83° ASPHALT 492 ft / 150 m 200 ft / 61 m VISUAL CENTERLINE EDGE THRESHOLD
27 148 ft / 45 m 8,918 ft / 2,718 m 274.88° / 270.27° ASPHALT 0 ft / 0 m 213 ft / 65 m PREC-APP CENTERLINE EDGE THRESHOLD REIL-UNI
30 164 ft / 50 m 5,132 ft / 1,564 m 306.45° / 301.83° ASPHALT 0 ft / 0 m 0 ft / 0 m VISUAL CENTERLINE EDGE THRESHOLD

Popular Alternatives